sensor_id;sensor_type;location;lat;lon;timestamp;pressure;altitude;pressure_sealevel;temperature;humidity
55517;BME280;41724;51.176;-0.708;2023-07-13T00:00:14;101053.30;;;16.24;80.02
55517;BME280;41724;51.176;-0.708;2023-07-13T00:02:41;101052.91;;;15.58;82.21
55517;BME280;41724;51.176;-0.708;2023-07-13T00:05:08;101055.77;;;15.39;83.40
55517;BME280;41724;51.176;-0.708;2023-07-13T00:07:36;101055.34;;;15.36;83.03
55517;BME280;41724;51.176;-0.708;2023-07-13T00:10:04;101058.87;;;14.86;87.47
55517;BME280;41724;51.176;-0.708;2023-07-13T00:12:33;101053.75;;;15.28;84.06
55517;BME280;41724;51.176;-0.708;2023-07-13T00:15:04;101050.40;;;16.17;80.43
55517;BME280;41724;51.176;-0.708;2023-07-13T00:17:31;101050.90;;;17.08;76.78
55517;BME280;41724;51.176;-0.708;2023-07-13T00:19:59;101051.49;;;15.92;79.43
55517;BME280;41724;51.176;-0.708;2023-07-13T00:22:26;101054.29;;;16.33;77.16
55517;BME280;41724;51.176;-0.708;2023-07-13T00:24:53;101055.58;;;16.92;75.11
55517;BME280;41724;51.176;-0.708;2023-07-13T00:27:21;101055.06;;;17.18;73.36
55517;BME280;41724;51.176;-0.708;2023-07-13T00:29:48;101057.38;;;17.56;71.98
55517;BME280;41724;51.176;-0.708;2023-07-13T00:32:15;101057.34;;;17.31;71.38
55517;BME280;41724;51.176;-0.708;2023-07-13T00:34:42;101054.27;;;17.55;70.62
55517;BME280;41724;51.176;-0.708;2023-07-13T00:37:09;101055.00;;;17.11;71.07
55517;BME280;41724;51.176;-0.708;2023-07-13T00:39:36;101057.31;;;17.62;69.95
55517;BME280;41724;51.176;-0.708;2023-07-13T00:42:04;101053.88;;;17.37;68.90
55517;BME280;41724;51.176;-0.708;2023-07-13T00:44:31;101052.12;;;17.96;68.45
55517;BME280;41724;51.176;-0.708;2023-07-13T00:46:58;101050.03;;;17.95;68.37
55517;BME280;41724;51.176;-0.708;2023-07-13T00:49:28;101050.55;;;17.48;68.66
55517;BME280;41724;51.176;-0.708;2023-07-13T00:51:58;101050.48;;;17.92;68.03
55517;BME280;41724;51.176;-0.708;2023-07-13T00:54:32;101050.46;;;17.94;67.78
55517;BME280;41724;51.176;-0.708;2023-07-13T00:57:03;101054.39;;;17.84;68.20
55517;BME280;41724;51.176;-0.708;2023-07-13T00:59:31;101051.66;;;17.82;68.04
55517;BME280;41724;51.176;-0.708;2023-07-13T01:02:00;101051.05;;;17.39;68.81
55517;BME280;41724;51.176;-0.708;2023-07-13T01:04:27;101052.05;;;17.25;69.83
55517;BME280;41724;51.176;-0.708;2023-07-13T01:06:54;101054.88;;;17.24;70.22
55517;BME280;41724;51.176;-0.708;2023-07-13T01:09:23;101054.98;;;17.08;69.87
55517;BME280;41724;51.176;-0.708;2023-07-13T01:11:50;101050.48;;;17.14;69.80
55517;BME280;41724;51.176;-0.708;2023-07-13T01:14:17;101050.96;;;17.05;69.44
55517;BME280;41724;51.176;-0.708;2023-07-13T01:16:46;101053.85;;;17.27;69.88
55517;BME280;41724;51.176;-0.708;2023-07-13T01:19:21;101051.73;;;17.02;70.85
55517;BME280;41724;51.176;-0.708;2023-07-13T01:21:53;101053.79;;;16.93;70.52
55517;BME280;41724;51.176;-0.708;2023-07-13T01:24:20;101054.85;;;17.09;70.62
55517;BME280;41724;51.176;-0.708;2023-07-13T01:26:47;101058.41;;;17.21;69.19
55517;BME280;41724;51.176;-0.708;2023-07-13T01:29:14;101062.14;;;17.17;69.53
55517;BME280;41724;51.176;-0.708;2023-07-13T01:31:41;101059.78;;;17.20;69.51
55517;BME280;41724;51.176;-0.708;2023-07-13T01:34:08;101059.83;;;17.00;69.91
55517;BME280;41724;51.176;-0.708;2023-07-13T01:36:35;101058.02;;;17.23;68.60
55517;BME280;41724;51.176;-0.708;2023-07-13T01:39:03;101057.72;;;17.19;69.13
55517;BME280;41724;51.176;-0.708;2023-07-13T01:41:30;101061.17;;;16.97;69.74
55517;BME280;41724;51.176;-0.708;2023-07-13T01:43:57;101062.96;;;17.20;70.01
55517;BME280;41724;51.176;-0.708;2023-07-13T01:46:24;101060.58;;;16.51;72.14
55517;BME280;41724;51.176;-0.708;2023-07-13T01:48:51;101063.85;;;16.64;71.47
55517;BME280;41724;51.176;-0.708;2023-07-13T01:51:18;101063.55;;;14.97;78.00
55517;BME280;41724;51.176;-0.708;2023-07-13T01:53:46;101059.89;;;14.80;79.28
55517;BME280;41724;51.176;-0.708;2023-07-13T01:56:13;101059.45;;;13.52;87.73
55517;BME280;41724;51.176;-0.708;2023-07-13T01:58:40;101058.04;;;13.21;88.16
55517;BME280;41724;51.176;-0.708;2023-07-13T02:01:07;101059.52;;;13.51;88.23
55517;BME280;41724;51.176;-0.708;2023-07-13T02:03:34;101058.25;;;13.66;88.21
55517;BME280;41724;51.176;-0.708;2023-07-13T02:06:01;101058.04;;;13.43;88.83
55517;BME280;41724;51.176;-0.708;2023-07-13T02:08:28;101056.63;;;13.12;92.98
55517;BME280;41724;51.176;-0.708;2023-07-13T02:10:55;101057.52;;;13.17;90.30
55517;BME280;41724;51.176;-0.708;2023-07-13T02:13:22;101050.36;;;13.22;90.12
55517;BME280;41724;51.176;-0.708;2023-07-13T02:15:50;101048.27;;;13.26;89.52
55517;BME280;41724;51.176;-0.708;2023-07-13T02:18:17;101047.67;;;13.54;89.73
55517;BME280;41724;51.176;-0.708;2023-07-13T02:20:45;101043.77;;;13.60;89.87
55517;BME280;41724;51.176;-0.708;2023-07-13T02:23:12;101044.72;;;13.23;89.48
55517;BME280;41724;51.176;-0.708;2023-07-13T02:25:39;101039.21;;;13.88;86.92
55517;BME280;41724;51.176;-0.708;2023-07-13T02:28:06;101042.74;;;14.01;86.20
55517;BME280;41724;51.176;-0.708;2023-07-13T02:30:34;101043.88;;;14.31;85.10
55517;BME280;41724;51.176;-0.708;2023-07-13T02:33:02;101045.84;;;15.06;80.97
55517;BME280;41724;51.176;-0.708;2023-07-13T02:35:28;101050.35;;;15.04;80.04
55517;BME280;41724;51.176;-0.708;2023-07-13T02:37:55;101048.76;;;14.85;79.42
55517;BME280;41724;51.176;-0.708;2023-07-13T02:40:23;101042.91;;;15.42;77.21
55517;BME280;41724;51.176;-0.708;2023-07-13T02:42:50;101040.88;;;15.92;75.64
55517;BME280;41724;51.176;-0.708;2023-07-13T02:45:18;101041.82;;;14.41;80.29
55517;BME280;41724;51.176;-0.708;2023-07-13T02:47:44;101038.82;;;14.47;80.26
55517;BME280;41724;51.176;-0.708;2023-07-13T02:50:11;101041.51;;;14.71;80.26
55517;BME280;41724;51.176;-0.708;2023-07-13T02:52:38;101042.66;;;14.60;81.26
55517;BME280;41724;51.176;-0.708;2023-07-13T02:55:06;101045.27;;;14.06;83.49
55517;BME280;41724;51.176;-0.708;2023-07-13T02:57:33;101054.60;;;13.12;87.97
55517;BME280;41724;51.176;-0.708;2023-07-13T03:00:00;101052.37;;;13.61;85.80
55517;BME280;41724;51.176;-0.708;2023-07-13T03:02:27;101052.72;;;12.99;90.65
55517;BME280;41724;51.176;-0.708;2023-07-13T03:04:55;101049.14;;;13.36;88.79
55517;BME280;41724;51.176;-0.708;2023-07-13T03:07:22;101048.60;;;13.03;89.74
55517;BME280;41724;51.176;-0.708;2023-07-13T03:09:54;101048.49;;;13.30;87.52
55517;BME280;41724;51.176;-0.708;2023-07-13T03:12:21;101049.40;;;13.64;86.52
55517;BME280;41724;51.176;-0.708;2023-07-13T03:14:49;101049.98;;;13.52;85.18
55517;BME280;41724;51.176;-0.708;2023-07-13T03:17:15;101053.06;;;13.59;86.22
55517;BME280;41724;51.176;-0.708;2023-07-13T03:19:42;101056.17;;;14.02;82.57
55517;BME280;41724;51.176;-0.708;2023-07-13T03:22:10;101060.79;;;13.11;87.54
55517;BME280;41724;51.176;-0.708;2023-07-13T03:24:37;101061.48;;;13.77;85.24
55517;BME280;41724;51.176;-0.708;2023-07-13T03:27:05;101063.20;;;14.77;80.45
55517;BME280;41724;51.176;-0.708;2023-07-13T03:29:32;101062.53;;;15.49;77.88
55517;BME280;41724;51.176;-0.708;2023-07-13T03:31:59;101061.49;;;15.07;77.02
55517;BME280;41724;51.176;-0.708;2023-07-13T03:34:26;101059.54;;;15.51;75.22
55517;BME280;41724;51.176;-0.708;2023-07-13T03:36:54;101057.22;;;16.07;73.56
55517;BME280;41724;51.176;-0.708;2023-07-13T03:39:21;101056.57;;;16.35;72.28
55517;BME280;41724;51.176;-0.708;2023-07-13T03:41:49;101051.18;;;16.75;71.32
55517;BME280;41724;51.176;-0.708;2023-07-13T03:44:16;101048.43;;;16.29;71.46
55517;BME280;41724;51.176;-0.708;2023-07-13T03:46:44;101048.45;;;16.39;71.39
55517;BME280;41724;51.176;-0.708;2023-07-13T03:49:12;101050.29;;;16.05;71.66
55517;BME280;41724;51.176;-0.708;2023-07-13T03:51:39;101058.34;;;16.11;70.41
55517;BME280;41724;51.176;-0.708;2023-07-13T03:54:06;101060.69;;;16.47;69.38
55517;BME280;41724;51.176;-0.708;2023-07-13T03:56:33;101059.53;;;16.69;68.73
55517;BME280;41724;51.176;-0.708;2023-07-13T03:59:00;101063.30;;;16.67;68.66
55517;BME280;41724;51.176;-0.708;2023-07-13T04:01:27;101062.76;;;16.46;67.92
55517;BME280;41724;51.176;-0.708;2023-07-13T04:03:55;101065.65;;;17.09;67.82
55517;BME280;41724;51.176;-0.708;2023-07-13T04:06:25;101067.93;;;16.61;68.40
55517;BME280;41724;51.176;-0.708;2023-07-13T04:08:59;101067.07;;;16.91;67.98
55517;BME280;41724;51.176;-0.708;2023-07-13T04:11:30;101071.81;;;16.67;68.07
55517;BME280;41724;51.176;-0.708;2023-07-13T04:13:57;101071.38;;;16.37;68.78
55517;BME280;41724;51.176;-0.708;2023-07-13T04:16:25;101074.67;;;16.32;68.18
55517;BME280;41724;51.176;-0.708;2023-07-13T04:18:52;101078.50;;;16.19;71.03
55517;BME280;41724;51.176;-0.708;2023-07-13T04:21:19;101081.38;;;15.58;74.75
55517;BME280;41724;51.176;-0.708;2023-07-13T04:23:47;101088.42;;;15.62;75.25
55517;BME280;41724;51.176;-0.708;2023-07-13T04:26:14;101089.27;;;15.09;76.07
55517;BME280;41724;51.176;-0.708;2023-07-13T04:28:41;101087.48;;;15.19;75.17
55517;BME280;41724;51.176;-0.708;2023-07-13T04:31:08;101083.90;;;14.97;78.07
55517;BME280;41724;51.176;-0.708;2023-07-13T04:33:35;101086.46;;;14.93;76.90
55517;BME280;41724;51.176;-0.708;2023-07-13T04:36:02;101085.97;;;14.48;80.30
55517;BME280;41724;51.176;-0.708;2023-07-13T04:38:31;101086.03;;;15.20;77.58
55517;BME280;41724;51.176;-0.708;2023-07-13T04:41:00;101086.95;;;14.86;79.76
55517;BME280;41724;51.176;-0.708;2023-07-13T04:43:28;101090.98;;;14.29;81.87
55517;BME280;41724;51.176;-0.708;2023-07-13T04:45:56;101091.49;;;15.18;78.82
55517;BME280;41724;51.176;-0.708;2023-07-13T04:48:23;101095.31;;;15.47;76.62
55517;BME280;41724;51.176;-0.708;2023-07-13T04:50:55;101096.50;;;15.43;77.29
55517;BME280;41724;51.176;-0.708;2023-07-13T04:53:23;101096.80;;;15.27;77.03
55517;BME280;41724;51.176;-0.708;2023-07-13T04:55:51;101092.92;;;16.04;74.60
55517;BME280;41724;51.176;-0.708;2023-07-13T04:58:18;101096.21;;;15.72;77.31
55517;BME280;41724;51.176;-0.708;2023-07-13T05:00:45;101094.03;;;15.12;78.70
55517;BME280;41724;51.176;-0.708;2023-07-13T05:03:11;101093.05;;;15.49;76.73
55517;BME280;41724;51.176;-0.708;2023-07-13T05:05:39;101092.70;;;15.21;80.08
55517;BME280;41724;51.176;-0.708;2023-07-13T05:08:07;101102.89;;;14.18;84.01
55517;BME280;41724;51.176;-0.708;2023-07-13T05:10:34;101099.38;;;13.97;86.74
55517;BME280;41724;51.176;-0.708;2023-07-13T05:13:01;101104.65;;;13.29;89.61
55517;BME280;41724;51.176;-0.708;2023-07-13T05:15:28;101104.03;;;13.14;90.91
55517;BME280;41724;51.176;-0.708;2023-07-13T05:17:55;101101.41;;;13.64;89.95
55517;BME280;41724;51.176;-0.708;2023-07-13T05:20:22;101096.26;;;14.92;86.81
55517;BME280;41724;51.176;-0.708;2023-07-13T05:22:49;101102.27;;;13.72;89.23
55517;BME280;41724;51.176;-0.708;2023-07-13T05:25:16;101101.49;;;14.21;88.04
55517;BME280;41724;51.176;-0.708;2023-07-13T05:27:43;101107.39;;;14.17;87.82
55517;BME280;41724;51.176;-0.708;2023-07-13T05:30:11;101101.36;;;14.20;87.35
55517;BME280;41724;51.176;-0.708;2023-07-13T05:32:38;101104.07;;;14.84;84.93
55517;BME280;41724;51.176;-0.708;2023-07-13T05:35:06;101110.89;;;14.87;86.29
55517;BME280;41724;51.176;-0.708;2023-07-13T05:37:33;101114.37;;;13.74;90.71
55517;BME280;41724;51.176;-0.708;2023-07-13T05:40:01;101114.86;;;14.74;88.05
55517;BME280;41724;51.176;-0.708;2023-07-13T05:42:28;101116.06;;;14.89;88.03
55517;BME280;41724;51.176;-0.708;2023-07-13T05:44:55;101125.84;;;14.30;89.15
55517;BME280;41724;51.176;-0.708;2023-07-13T05:47:21;101126.45;;;14.06;90.30
55517;BME280;41724;51.176;-0.708;2023-07-13T05:49:48;101122.60;;;15.27;86.40
55517;BME280;41724;51.176;-0.708;2023-07-13T05:52:15;101125.28;;;14.88;87.09
55517;BME280;41724;51.176;-0.708;2023-07-13T05:54:42;101126.56;;;14.91;85.01
55517;BME280;41724;51.176;-0.708;2023-07-13T05:57:09;101128.26;;;14.26;89.74
55517;BME280;41724;51.176;-0.708;2023-07-13T05:59:36;101134.86;;;14.39;89.04
55517;BME280;41724;51.176;-0.708;2023-07-13T06:02:04;101133.96;;;15.38;84.87
55517;BME280;41724;51.176;-0.708;2023-07-13T06:04:31;101134.41;;;14.98;86.72
55517;BME280;41724;51.176;-0.708;2023-07-13T06:08:14;101140.84;;;14.96;86.68
55517;BME280;41724;51.176;-0.708;2023-07-13T06:10:41;101136.73;;;16.11;81.48
55517;BME280;41724;51.176;-0.708;2023-07-13T06:13:08;101142.13;;;15.52;84.69
55517;BME280;41724;51.176;-0.708;2023-07-13T06:21:24;101156.40;;;16.17;83.25
55517;BME280;41724;51.176;-0.708;2023-07-13T06:25:13;101153.35;;;16.28;80.91
55517;BME280;41724;51.176;-0.708;2023-07-13T06:32:35;101164.94;;;15.77;84.20
55517;BME280;41724;51.176;-0.708;2023-07-13T06:38:39;101178.08;;;14.63;89.60
55517;BME280;41724;51.176;-0.708;2023-07-13T06:42:24;101179.61;;;15.14;87.97
55517;BME280;41724;51.176;-0.708;2023-07-13T06:44:51;101184.82;;;16.02;83.29
55517;BME280;41724;51.176;-0.708;2023-07-13T06:47:18;101187.72;;;14.40;89.32
55517;BME280;41724;51.176;-0.708;2023-07-13T06:49:45;101184.68;;;15.83;84.57
55517;BME280;41724;51.176;-0.708;2023-07-13T06:52:12;101185.59;;;15.09;86.25
55517;BME280;41724;51.176;-0.708;2023-07-13T06:54:39;101189.20;;;15.02;88.01
55517;BME280;41724;51.176;-0.708;2023-07-13T06:57:06;101188.98;;;14.86;88.27
55517;BME280;41724;51.176;-0.708;2023-07-13T06:59:33;101187.33;;;15.73;84.17
55517;BME280;41724;51.176;-0.708;2023-07-13T07:02:00;101186.52;;;16.72;79.18
55517;BME280;41724;51.176;-0.708;2023-07-13T07:04:27;101190.31;;;16.73;79.09
55517;BME280;41724;51.176;-0.708;2023-07-13T07:06:54;101192.71;;;17.48;77.15
55517;BME280;41724;51.176;-0.708;2023-07-13T07:09:21;101196.30;;;17.50;75.51
55517;BME280;41724;51.176;-0.708;2023-07-13T07:11:48;101198.00;;;16.40;78.66
55517;BME280;41724;51.176;-0.708;2023-07-13T07:14:15;101201.43;;;16.23;79.60
55517;BME280;41724;51.176;-0.708;2023-07-13T07:16:42;101206.56;;;17.15;78.04
55517;BME280;41724;51.176;-0.708;2023-07-13T07:19:09;101206.26;;;17.03;77.34
55517;BME280;41724;51.176;-0.708;2023-07-13T07:21:36;101209.30;;;16.72;77.30
55517;BME280;41724;51.176;-0.708;2023-07-13T07:24:03;101209.64;;;17.50;75.42
55517;BME280;41724;51.176;-0.708;2023-07-13T07:26:31;101220.40;;;16.79;78.52
55517;BME280;41724;51.176;-0.708;2023-07-13T07:28:58;101214.79;;;17.00;77.61
55517;BME280;41724;51.176;-0.708;2023-07-13T07:56:57;101238.31;;;16.29;84.33
55517;BME280;41724;51.176;-0.708;2023-07-13T07:59:24;101236.71;;;17.03;80.39
55517;BME280;41724;51.176;-0.708;2023-07-13T08:01:56;101238.81;;;17.02;80.75
55517;BME280;41724;51.176;-0.708;2023-07-13T08:04:23;101233.67;;;17.29;79.43
55517;BME280;41724;51.176;-0.708;2023-07-13T08:06:50;101240.34;;;18.00;75.99
55517;BME280;41724;51.176;-0.708;2023-07-13T08:09:17;101235.32;;;17.92;76.59
55517;BME280;41724;51.176;-0.708;2023-07-13T08:11:43;101236.02;;;18.03;75.20
55517;BME280;41724;51.176;-0.708;2023-07-13T08:14:10;101238.75;;;17.76;75.69
55517;BME280;41724;51.176;-0.708;2023-07-13T08:16:37;101238.33;;;17.66;75.56
55517;BME280;41724;51.176;-0.708;2023-07-13T08:19:04;101236.58;;;17.41;77.92
55517;BME280;41724;51.176;-0.708;2023-07-13T08:21:31;101232.51;;;17.16;79.26
55517;BME280;41724;51.176;-0.708;2023-07-13T08:23:58;101234.14;;;17.78;76.07
55517;BME280;41724;51.176;-0.708;2023-07-13T08:26:25;101225.51;;;18.20;76.02
55517;BME280;41724;51.176;-0.708;2023-07-13T08:28:52;101225.98;;;17.56;76.20
55517;BME280;41724;51.176;-0.708;2023-07-13T08:31:19;101237.65;;;17.88;73.07
55517;BME280;41724;51.176;-0.708;2023-07-13T08:33:47;101227.40;;;19.01;70.34
55517;BME280;41724;51.176;-0.708;2023-07-13T08:36:13;101228.62;;;17.71;72.32
55517;BME280;41724;51.176;-0.708;2023-07-13T08:38:41;101232.20;;;17.01;78.76
55517;BME280;41724;51.176;-0.708;2023-07-13T08:41:13;101223.92;;;17.80;76.48
55517;BME280;41724;51.176;-0.708;2023-07-13T08:43:42;101216.94;;;17.85;74.92
55517;BME280;41724;51.176;-0.708;2023-07-13T08:46:14;101221.89;;;18.00;76.14
55517;BME280;41724;51.176;-0.708;2023-07-13T08:48:48;101222.38;;;18.40;74.30
55517;BME280;41724;51.176;-0.708;2023-07-13T08:51:29;101228.46;;;19.05;70.62
55517;BME280;41724;51.176;-0.708;2023-07-13T08:54:00;101223.78;;;19.04;67.94
55517;BME280;41724;51.176;-0.708;2023-07-13T08:56:30;101228.59;;;17.57;72.75
55517;BME280;41724;51.176;-0.708;2023-07-13T08:59:01;101229.00;;;18.66;70.63
55517;BME280;41724;51.176;-0.708;2023-07-13T09:01:39;101226.56;;;18.49;70.79
55517;BME280;41724;51.176;-0.708;2023-07-13T09:04:18;101224.30;;;17.86;72.90
55517;BME280;41724;51.176;-0.708;2023-07-13T09:06:56;101227.18;;;18.52;70.38
55517;BME280;41724;51.176;-0.708;2023-07-13T09:09:37;101231.87;;;18.13;69.93
55517;BME280;41724;51.176;-0.708;2023-07-13T09:12:13;101231.00;;;17.85;74.03
55517;BME280;41724;51.176;-0.708;2023-07-13T09:14:44;101235.15;;;18.82;70.59
55517;BME280;41724;51.176;-0.708;2023-07-13T09:17:16;101234.26;;;19.37;67.71
55517;BME280;41724;51.176;-0.708;2023-07-13T09:19:47;101233.06;;;19.68;66.57
55517;BME280;41724;51.176;-0.708;2023-07-13T09:22:19;101232.90;;;20.21;63.24
55517;BME280;41724;51.176;-0.708;2023-07-13T09:24:53;101235.55;;;19.37;65.35
55517;BME280;41724;51.176;-0.708;2023-07-13T09:27:29;101226.31;;;20.30;64.99
55517;BME280;41724;51.176;-0.708;2023-07-13T09:30:04;101224.21;;;20.14;64.14
55517;BME280;41724;51.176;-0.708;2023-07-13T09:32:39;101229.77;;;20.12;64.24
55517;BME280;41724;51.176;-0.708;2023-07-13T09:35:10;101223.08;;;21.12;62.18
55517;BME280;41724;51.176;-0.708;2023-07-13T09:37:38;101226.03;;;19.53;62.94
55517;BME280;41724;51.176;-0.708;2023-07-13T09:40:13;101229.33;;;19.81;64.11
55517;BME280;41724;51.176;-0.708;2023-07-13T09:42:45;101227.55;;;19.64;64.67
55517;BME280;41724;51.176;-0.708;2023-07-13T09:45:17;101231.24;;;19.05;65.61
55517;BME280;41724;51.176;-0.708;2023-07-13T09:47:59;101232.39;;;17.57;69.29
55517;BME280;41724;51.176;-0.708;2023-07-13T09:50:27;101223.36;;;19.05;67.53
55517;BME280;41724;51.176;-0.708;2023-07-13T09:52:53;101226.95;;;19.62;65.21
55517;BME280;41724;51.176;-0.708;2023-07-13T09:55:26;101226.18;;;17.84;68.37
55517;BME280;41724;51.176;-0.708;2023-07-13T09:57:53;101230.78;;;18.68;68.09
55517;BME280;41724;51.176;-0.708;2023-07-13T10:00:23;101228.72;;;19.32;65.47
55517;BME280;41724;51.176;-0.708;2023-07-13T10:03:02;101228.64;;;19.09;63.44
55517;BME280;41724;51.176;-0.708;2023-07-13T10:05:40;101228.34;;;19.80;63.26
55517;BME280;41724;51.176;-0.708;2023-07-13T10:08:17;101222.64;;;20.16;60.44
55517;BME280;41724;51.176;-0.708;2023-07-13T10:10:44;101226.24;;;19.91;62.59
55517;BME280;41724;51.176;-0.708;2023-07-13T10:13:28;101229.29;;;20.27;62.28
55517;BME280;41724;51.176;-0.708;2023-07-13T10:15:55;101224.03;;;20.25;60.18
55517;BME280;41724;51.176;-0.708;2023-07-13T10:18:25;101220.69;;;20.40;58.77
55517;BME280;41724;51.176;-0.708;2023-07-13T10:20:55;101216.25;;;21.30;58.77
55517;BME280;41724;51.176;-0.708;2023-07-13T10:23:31;101225.75;;;20.54;61.22
55517;BME280;41724;51.176;-0.708;2023-07-13T10:25:59;101227.24;;;18.69;64.87
55517;BME280;41724;51.176;-0.708;2023-07-13T10:28:31;101215.87;;;20.04;62.26
55517;BME280;41724;51.176;-0.708;2023-07-13T10:31:01;101218.48;;;19.96;63.08
55517;BME280;41724;51.176;-0.708;2023-07-13T10:33:29;101221.44;;;20.33;61.87
55517;BME280;41724;51.176;-0.708;2023-07-13T10:36:03;101224.16;;;21.05;58.94
55517;BME280;41724;51.176;-0.708;2023-07-13T10:38:35;101235.93;;;19.74;62.48
55517;BME280;41724;51.176;-0.708;2023-07-13T10:41:04;101234.62;;;18.91;65.41
55517;BME280;41724;51.176;-0.708;2023-07-13T10:43:35;101227.84;;;19.71;63.03
55517;BME280;41724;51.176;-0.708;2023-07-13T10:46:04;101229.17;;;19.44;64.58
55517;BME280;41724;51.176;-0.708;2023-07-13T10:48:33;101235.71;;;17.79;70.32
55517;BME280;41724;51.176;-0.708;2023-07-13T10:51:01;101246.87;;;18.16;71.89
55517;BME280;41724;51.176;-0.708;2023-07-13T10:53:32;101250.78;;;17.33;79.19
55517;BME280;41724;51.176;-0.708;2023-07-13T10:56:02;101253.48;;;17.07;82.36
55517;BME280;41724;51.176;-0.708;2023-07-13T10:58:33;101261.00;;;16.74;83.69
55517;BME280;41724;51.176;-0.708;2023-07-13T11:01:07;101254.97;;;17.15;80.08
55517;BME280;41724;51.176;-0.708;2023-07-13T11:03:36;101258.82;;;16.74;80.99
55517;BME280;41724;51.176;-0.708;2023-07-13T11:06:08;101256.30;;;17.12;79.16
55517;BME280;41724;51.176;-0.708;2023-07-13T11:08:38;101251.53;;;18.16;77.34
55517;BME280;41724;51.176;-0.708;2023-07-13T11:11:34;101258.29;;;16.75;80.32
55517;BME280;41724;51.176;-0.708;2023-07-13T11:14:02;101247.84;;;18.39;73.82
55517;BME280;41724;51.176;-0.708;2023-07-13T11:16:36;101250.46;;;18.20;72.37
55517;BME280;41724;51.176;-0.708;2023-07-13T11:19:41;101245.56;;;19.57;69.46
55517;BME280;41724;51.176;-0.708;2023-07-13T11:22:14;101244.81;;;19.33;68.32
55517;BME280;41724;51.176;-0.708;2023-07-13T11:24:52;101244.30;;;18.92;68.63
55517;BME280;41724;51.176;-0.708;2023-07-13T11:27:34;101241.61;;;21.02;65.32
55517;BME280;41724;51.176;-0.708;2023-07-13T11:30:23;101240.91;;;20.80;65.56
55517;BME280;41724;51.176;-0.708;2023-07-13T11:33:02;101238.24;;;20.28;66.40
55517;BME280;41724;51.176;-0.708;2023-07-13T11:35:29;101243.53;;;19.69;66.80
55517;BME280;41724;51.176;-0.708;2023-07-13T11:37:57;101239.82;;;19.78;66.38
55517;BME280;41724;51.176;-0.708;2023-07-13T11:40:26;101235.98;;;20.95;62.10
55517;BME280;41724;51.176;-0.708;2023-07-13T11:43:00;101229.09;;;20.74;62.87
55517;BME280;41724;51.176;-0.708;2023-07-13T11:45:27;101235.58;;;21.33;60.85
55517;BME280;41724;51.176;-0.708;2023-07-13T11:47:54;101231.31;;;20.68;60.66
55517;BME280;41724;51.176;-0.708;2023-07-13T11:50:24;101230.00;;;21.27;58.79
55517;BME280;41724;51.176;-0.708;2023-07-13T11:52:52;101235.12;;;19.81;62.04
55517;BME280;41724;51.176;-0.708;2023-07-13T11:55:22;101232.81;;;18.71;66.17
55517;BME280;41724;51.176;-0.708;2023-07-13T11:57:51;101231.03;;;19.12;67.93
55517;BME280;41724;51.176;-0.708;2023-07-13T12:00:23;101224.04;;;19.53;67.19
55517;BME280;41724;51.176;-0.708;2023-07-13T12:02:54;101228.91;;;19.57;64.60
55517;BME280;41724;51.176;-0.708;2023-07-13T12:05:23;101226.16;;;19.91;65.96
55517;BME280;41724;51.176;-0.708;2023-07-13T12:07:51;101219.74;;;19.68;67.46
55517;BME280;41724;51.176;-0.708;2023-07-13T12:10:20;101220.64;;;21.02;60.47
55517;BME280;41724;51.176;-0.708;2023-07-13T12:12:50;101220.74;;;20.95;61.93
55517;BME280;41724;51.176;-0.708;2023-07-13T12:15:18;101226.05;;;21.54;59.71
55517;BME280;41724;51.176;-0.708;2023-07-13T12:17:46;101216.01;;;20.78;58.71
55517;BME280;41724;51.176;-0.708;2023-07-13T12:20:20;101224.82;;;20.86;61.19
55517;BME280;41724;51.176;-0.708;2023-07-13T12:22:49;101217.59;;;20.31;62.78
55517;BME280;41724;51.176;-0.708;2023-07-13T12:25:18;101210.50;;;20.97;62.55
55517;BME280;41724;51.176;-0.708;2023-07-13T12:27:47;101215.80;;;21.87;59.67
55517;BME280;41724;51.176;-0.708;2023-07-13T12:30:24;101210.71;;;21.25;60.33
55517;BME280;41724;51.176;-0.708;2023-07-13T12:32:56;101217.81;;;20.63;63.16
55517;BME280;41724;51.176;-0.708;2023-07-13T12:35:24;101218.42;;;19.85;66.37
55517;BME280;41724;51.176;-0.708;2023-07-13T12:37:52;101227.51;;;19.19;67.76
55517;BME280;41724;51.176;-0.708;2023-07-13T12:40:20;101228.07;;;19.39;67.53
55517;BME280;41724;51.176;-0.708;2023-07-13T12:42:49;101234.07;;;20.03;66.24
55517;BME280;41724;51.176;-0.708;2023-07-13T12:45:21;101222.37;;;20.12;64.42
55517;BME280;41724;51.176;-0.708;2023-07-13T12:47:52;101214.90;;;21.26;60.47
55517;BME280;41724;51.176;-0.708;2023-07-13T12:50:22;101218.34;;;19.84;64.55
55517;BME280;41724;51.176;-0.708;2023-07-13T12:52:52;101215.95;;;19.30;65.87
55517;BME280;41724;51.176;-0.708;2023-07-13T12:55:21;101215.82;;;19.25;65.03
55517;BME280;41724;51.176;-0.708;2023-07-13T12:57:51;101210.97;;;19.57;65.31
55517;BME280;41724;51.176;-0.708;2023-07-13T13:00:25;101209.16;;;19.93;64.85
55517;BME280;41724;51.176;-0.708;2023-07-13T13:02:56;101196.30;;;21.18;60.58
55517;BME280;41724;51.176;-0.708;2023-07-13T13:05:26;101194.52;;;20.81;60.89
55517;BME280;41724;51.176;-0.708;2023-07-13T13:07:53;101200.45;;;20.97;58.66
55517;BME280;41724;51.176;-0.708;2023-07-13T13:10:20;101198.77;;;21.42;57.23
55517;BME280;41724;51.176;-0.708;2023-07-13T13:12:47;101194.08;;;22.40;55.09
55517;BME280;41724;51.176;-0.708;2023-07-13T13:15:14;101207.23;;;22.30;54.18
55517;BME280;41724;51.176;-0.708;2023-07-13T13:17:41;101209.56;;;21.17;57.04
55517;BME280;41724;51.176;-0.708;2023-07-13T13:20:15;101198.09;;;22.19;56.41
55517;BME280;41724;51.176;-0.708;2023-07-13T13:22:42;101198.95;;;22.05;55.60
55517;BME280;41724;51.176;-0.708;2023-07-13T13:25:10;101200.27;;;22.02;54.59
55517;BME280;41724;51.176;-0.708;2023-07-13T13:27:37;101196.68;;;21.23;57.20
55517;BME280;41724;51.176;-0.708;2023-07-13T13:30:10;101189.33;;;23.34;52.88
55517;BME280;41724;51.176;-0.708;2023-07-13T13:32:47;101194.71;;;21.38;53.93